Aviation Digital Data Service (ADDS)

Output produced by METARs form (0730 UTC 24 March 2019)
found at http://www.aviationweather.gov/metar/data/
 
KADG 240653Z AUTO 00000KT 10SM CLR M01/M06 A3022 RMK AO2 SLP242 T10061061 TSNO
KAMN 240723Z AUTO 23005KT 10SM CLR 01/M05 A3017 RMK AO2
KAPN 240654Z AUTO 24009KT 10SM CLR 02/M04 A3004 RMK AO2 SLP180 T00221039
KAPN 240520Z 2406/2506 25008KT P6SM SKC WS020/27040KT 
     FM241100 27007KT P6SM FEW250 
     FM241300 30007KT P6SM SCT250 
     FM241500 01008KT P6SM BKN020 
     FM241800 04009KT P6SM VCSH OVC020 
     FM250000 35006KT P6SM SCT250
       
KARB 240653Z AUTO 00000KT 10SM CLR M04/M06 A3020 RMK AO2 SLP235 T10391056
KBAX 240716Z AUTO 23006KT 10SM CLR 01/M04 A3013 RMK AO2 T00091042
KBTL 240653Z AUTO 20003KT 10SM CLR M01/M05 A3020 RMK AO2 SLP236 T10111050
KBTL 240540Z 2406/2506 VRB04KT P6SM BKN150 
     FM241700 25006KT P6SM OVC060 
     FM250000 33004KT 5SM -RA OVC050 
     FM250200 35003KT 4SM -RA OVC025
       
KACB 240715Z AUTO 20004KT 10SM CLR 00/M04 A3010 RMK AO2 T00011039
KBEH 240653Z AUTO 00000KT 10SM CLR M02/M05 A3020 RMK AO2 SLP234 T10171050
KRQB 240716Z AUTO 24008KT 10SM CLR 03/M05 A3014 RMK AO2 T00341055
KCAD 240716Z AUTO 24006KT 10SM CLR 00/M05 A3011 RMK AO2 T00061049
KCFS 240716Z AUTO 22007KT 10SM CLR 00/M05 A3016 RMK AO2 T00001052
KCVX 240716Z AUTO 21007KT 10SM CLR 02/M03 A3009 RMK AO2 T00231027
KFPK 240715Z AUTO 00000KT 10SM CLR M01/M04 A3018 RMK AO2 T10081044
KSLH 240716Z AUTO 25010KT 10SM CLR 03/M02 A3003 RMK AO2 T00311020
KOEB 240715Z AUTO 00000KT 10SM CLR M01/M02 A3020 RMK AO2 T10061025
KDET 240653Z 25005KT 10SM CLR 03/M07 A3021 RMK AO2 SLP233 T00281067
KDET 240531Z 2406/2506 21004KT P6SM SCT250 
     FM241400 23008KT P6SM SCT080 OVC120 
     FM242000 26011KT P6SM BKN050 OVC100 
     FM250300 02012G20KT P6SM BKN028 OVC060
       
KDTW 240653Z 22004KT 10SM BKN250 01/M07 A3021 RMK AO2 SLP236 T00061067
KDTW 240531Z 2406/2512 21004KT P6SM SCT250 
     FM241400 23008KT P6SM SCT080 OVC120 
     FM242000 26011KT P6SM BKN050 OVC100 
     FM250300 02012G20KT P6SM BKN028 OVC060 
     FM250600 01014KT P6SM SCT040
       
KONZ 240716Z AUTO 00000KT 10SM CLR 02/M05 A3021 RMK AO2 T00181053
KYIP 240653Z 22004KT 10SM CLR 00/M06 A3021 RMK AO2 SLP233 T00001056
KYIP 240531Z 2406/2506 21004KT P6SM SCT250 
     FM241400 23008KT P6SM SCT080 OVC120 
     FM242000 26011KT P6SM BKN050 OVC100 
     FM250300 02012G20KT P6SM BKN028 OVC060
       
KDRM 240716Z AUTO 25008KT 10SM CLR 02/M02 A3000 RMK AO2 T00211017
KESC 240656Z AUTO 21004KT 10SM CLR M02/M05 A3005 RMK AO2 SLP203 T10221050 FZRANO
KFNT 240653Z AUTO 22007KT 10SM CLR 01/M05 A3019 RMK AO2 SLP232 T00061050
KFNT 240531Z 2406/2506 24005KT P6SM SKC 
     FM241400 26011KT P6SM BKN120 
     FM250000 02011G19KT P6SM BKN024 OVC040
       
KFKS 240715Z AUTO 21008G15KT 10SM CLR 04/M01 A3012 RMK AO2 T00421010
KFFX 240727Z AUTO 00000KT 10SM CLR 00/M06 A3016 RMK AO2
KGLR 240653Z AUTO 25015G21KT 10SM CLR 02/M04 A3006 RMK AO2 SLP193 T00171044
KGRR 240653Z AUTO 21007KT 10SM CLR 02/M06 A3018 RMK AO2 SLP228 T00171061
KGRR 240540Z 2406/2506 VRB04KT P6SM BKN150 
     FM241500 26007KT P6SM OVC060 
     FM250000 01008KT P6SM BKN050
       
KGOV 240558Z AUTO 26005KT 10SM M 00/M04 A3008 RMK AO2 SLP205 T00001042 10044 21003 57013 $
KCMX 240653Z AUTO 28020G29KT 10SM OVC055 06/M05 A2999 RMK AO2 PK WND 28032/0558 SLP165 T00561050
KCMX 240520Z 2406/2506 28014KT P6SM SCT110 WS010/28035KT 
     FM240800 33011KT P6SM BKN040 
     FM240900 01015G25KT P6SM OVC020 
     FM241200 04013G23KT P6SM BKN035 
     FM241800 04011G18KT P6SM SKC 
     FM250100 34005KT P6SM SKC
       
KMGN 240716Z AUTO 26006KT 10SM CLR 01/M03 A3006 RMK AO2 T00111031
KJYM 240716Z AUTO 21004KT 10SM CLR 02/M07 A3019 RMK AO2 T00191067
KBIV 240653Z AUTO 20005KT 10SM CLR 02/M05 A3019 RMK AO2 SLP229 T00171050
KHTL 240653Z AUTO 23007KT 10SM CLR M01/M06 A3011 RMK AO2 SLP207 T10061056
KOZW 240716Z AUTO 21003KT 10SM CLR 00/M06 A3019 RMK AO2 T00001060
KY70 240716Z AUTO 22006KT 10SM CLR 01/M06 A3017 RMK AO2 T00101061
KIMT 240654Z AUTO 25005KT 10SM CLR 03/M06 A3003 RMK AO2 SLP179 T00331056
KIWD 240656Z AUTO 23007KT 10SM CLR 02/M04 A3007 RMK AO2 SLP193 T00171044 FZRANO PNO $
KIWD 240520Z 2406/2506 24009KT P6SM SKC 
     FM241100 05010G23KT P6SM OVC010 
     FM241600 05010KT P6SM BKN035 
     FM241900 04009KT P6SM SCT040 
     FM250100 00000KT P6SM SKC
       
KJXN 240656Z AUTO 21004KT 10SM CLR M02/M06 A3020 RMK AO2 SLP235 T10221056
KJXN 240540Z 2406/2506 VRB04KT P6SM SCT150 
     FM241700 25007KT P6SM OVC060 
     FM250100 35004KT 6SM BR OVC025 
     FM250200 33004KT 5SM -RA OVC025
       
KAZO 240653Z AUTO 00000KT 10SM CLR M01/M03 A3021 RMK AO2 SLP237 T10111033
KAZO 240540Z 2406/2506 VRB04KT P6SM BKN150 
     FM241400 25006KT P6SM OVC060 
     FM250000 33004KT 3SM -RA OVC050 
     FM250200 35003KT 4SM -RA OVC025
       
KDUH 240715Z AUTO 00000KT 10SM CLR 00/M04 A3022 RMK AO2 T00001040
KLAN 240653Z 21004KT 10SM CLR 00/M05 A3020 RMK AO2 SLP233 T00001050
KLAN 240540Z 2406/2506 VRB04KT P6SM SCT150 
     FM241800 26008KT P6SM OVC050 
     FM250200 02007KT P6SM OVC035 
     FM250500 02007KT P6SM BKN050
       
KD95 240716Z AUTO 24005KT 10SM CLR 01/M04 A3018 RMK AO2 T00101044
KLDM 240716Z AUTO 23009KT 10SM CLR 03/M02 A3015 RMK AO2 T00301019
KMCD 240716Z AUTO 24013G24KT 10SM CLR 01/M02 A3002 RMK AO2 T00141017
KMBL 240656Z AUTO 00000KT 10SM CLR M03/M05 A3015 RMK AO2 SLP232 T10281050 FZRANO
KMBL 240520Z 2406/2506 21007KT P6SM FEW250 
     FM241200 26006KT P6SM SCT150 
     FM241400 30006KT P6SM BKN120 
     FM241600 33007KT P6SM BKN120 
     FM241800 36008KT P6SM BKN150 
     FM242000 02010G20KT P6SM BKN020 
     FM250100 03011G21KT P6SM SCT250
       
KISQ 240716Z AUTO 24004KT 10SM CLR 02/M07 A3002 RMK AO2 T00211068
KSAW 240719Z AUTO 30008KT 10SM CLR 03/M07 A2999 RMK AO2 T00271068
KSAW 240520Z 2406/2506 25007KT P6SM SKC WS005/27035KT 
     FM240800 30008KT P6SM FEW060 
     FM241000 01017G25KT 6SM -FZDZ OVC008 
     FM241400 01017G25KT P6SM OVC012 
     FM241600 02015G21KT P6SM BKN022 
     FM241800 02014G20KT P6SM FEW025 
     FM250000 36009KT P6SM FEW160
       
KRMY 240716Z AUTO 00000KT 10SM CLR M02/M02 A3020 RMK AO2 T10211021
KTEW 240715Z AUTO 00000KT 10SM CLR 00/M03 A3019 RMK AO2 T10021030
KMNM 240656Z AUTO 25005KT 10SM CLR 03/M03 A3009 RMK AO2 SLP211 T00281033 $
KIKW 240715Z AUTO 00000KT 10SM CLR M02/M04 A3015 RMK AO2 T10201043
KTTF 240705Z AUTO 00000KT 10SM CLR M01/M02 A3021 RMK AO2
KMOP 240715Z AUTO 23008KT 10SM CLR 03/M07 A3015 RMK AO2 T00251070
KMKG 240655Z AUTO 22009KT 10SM CLR 04/M05 A3018 RMK AO2 SLP226 T00391050
KMKG 240540Z 2406/2506 VRB04KT P6SM BKN150 
     FM241800 30007KT P6SM OVC050 
     FM250500 04007KT P6SM SCT050
       
KERY 240716Z AUTO 22009KT 10SM CLR 00/M02 A2999 RMK AO2 T00001022
KOSC 240716Z AUTO 23009KT 10SM CLR 00/M05 A3008 RMK AO2 T10051048
KRNP 240715Z AUTO 22003KT 10SM CLR 02/M06 A3018 RMK AO2 T00201056
KPLN 240654Z AUTO 25009G19KT 10SM CLR 03/M03 A3004 RMK AO2 SLP181 T00331028
KPLN 240520Z 2406/2506 24011G21KT P6SM FEW250 WS020/27040KT 
     FM241100 26008KT P6SM SCT250 
     FM241300 30007KT P6SM BKN025 
     FM241500 04007KT P6SM VCSH OVC020 
     FM242200 02008KT P6SM SCT090
       
KPTK 240653Z AUTO 24005KT 10SM CLR 01/M06 A3018 RMK AO2 SLP229 T00061061
KPTK 240531Z 2406/2506 24005KT P6SM SCT250 
     FM241400 24010KT P6SM OVC120 
     FM242200 27008KT P6SM SCT040 OVC100 
     FM250100 02011G19KT P6SM BKN024 OVC040
       
KPHN 240715Z AUTO 20003KT 10SM CLR M03/M05 A3019 RMK AO2
KPZQ 240716Z AUTO 26010KT 10SM CLR 03/M02 A3003 RMK AO2 T00311022
KMBS 240653Z AUTO 22009KT 10SM CLR 01/M05 A3016 RMK AO2 SLP220 T00061050
KMBS 240531Z 2406/2506 24008KT P6SM SKC 
     FM241400 26012KT P6SM BKN150 
     FM242200 03014G22KT P6SM BKN018 
     FM250400 02011G19KT P6SM SKC
       
KHYX 240715Z AUTO 22008KT 10SM CLR 02/M03 A3016 RMK AO2
KCIU 240656Z AUTO 24007KT 10SM CLR M01/M02 A3001 RMK AO2 SLP189 T10061017 FZRANO
KANJ 240655Z AUTO 23007KT 10SM BKN080 01/M02 A2998 RMK AO2 SLP157 T00111017
KLWA 240715Z AUTO 00000KT 10SM CLR 00/M04 A3020 RMK AO2 T10051044
KIRS 240715Z AUTO 00000KT 10SM CLR 03/M04 A3019 RMK AO2 T00251040
KHAI 240715Z AUTO 00000KT 10SM CLR M01/M04 A3021 RMK AO2 T10101039
KTVC 240653Z AUTO 22009KT 10SM CLR 03/M04 A3009 RMK AO2 SLP194 T00331039
KTVC 240520Z 2406/2506 22009KT P6SM SKC WS020/27035KT 
     FM241100 24007KT P6SM SCT200 
     FM241400 32008KT P6SM BKN180 
     FM241700 36009G18KT P6SM BKN020 
     FM250100 02009KT P6SM SCT250
       
KVLL 240715Z AUTO 23004KT 10SM CLR 01/M09 A3021 RMK AO2 T00111089
KY31 240716Z AUTO 23007KT 10SM CLR M01/M05 A3010 RMK AO2 T10101052